sensor_id;sensor_type;location;lat;lon;timestamp;P1;durP1;ratioP1;P2;durP2;ratioP2
2996;SDS011;1508;48.744;9.110;2022-09-09T00:00:25;4.25;;;1.10;;
2996;SDS011;1508;48.744;9.110;2022-09-09T00:03:16;3.05;;;1.20;;
2996;SDS011;1508;48.744;9.110;2022-09-09T00:09:19;5.75;;;1.50;;
2996;SDS011;1508;48.744;9.110;2022-09-09T00:15:13;2.77;;;1.30;;
2996;SDS011;1508;48.744;9.110;2022-09-09T00:20:56;4.50;;;1.30;;
2996;SDS011;1508;48.744;9.110;2022-09-09T00:23:49;3.72;;;1.30;;
2996;SDS011;1508;48.744;9.110;2022-09-09T00:26:42;7.57;;;1.50;;
2996;SDS011;1508;48.744;9.110;2022-09-09T00:29:41;3.85;;;1.30;;
2996;SDS011;1508;48.744;9.110;2022-09-09T00:32:30;5.00;;;1.30;;
2996;SDS011;1508;48.744;9.110;2022-09-09T00:35:22;2.63;;;1.10;;
2996;SDS011;1508;48.744;9.110;2022-09-09T00:38:13;5.38;;;1.10;;
2996;SDS011;1508;48.744;9.110;2022-09-09T00:44:32;3.75;;;1.30;;
2996;SDS011;1508;48.744;9.110;2022-09-09T00:56:51;2.60;;;1.40;;
2996;SDS011;1508;48.744;9.110;2022-09-09T00:59:52;2.80;;;1.35;;
2996;SDS011;1508;48.744;9.110;2022-09-09T01:14:52;4.88;;;1.40;;
2996;SDS011;1508;48.744;9.110;2022-09-09T01:26:44;3.23;;;1.40;;
2996;SDS011;1508;48.744;9.110;2022-09-09T01:29:31;2.80;;;1.13;;
2996;SDS011;1508;48.744;9.110;2022-09-09T01:38:30;4.38;;;1.30;;
2996;SDS011;1508;48.744;9.110;2022-09-09T01:41:18;3.70;;;1.50;;
2996;SDS011;1508;48.744;9.110;2022-09-09T01:44:04;2.33;;;1.30;;
2996;SDS011;1508;48.744;9.110;2022-09-09T01:46:51;4.07;;;1.20;;
2996;SDS011;1508;48.744;9.110;2022-09-09T01:49:37;3.50;;;1.40;;
2996;SDS011;1508;48.744;9.110;2022-09-09T01:52:22;3.00;;;1.27;;
2996;SDS011;1508;48.744;9.110;2022-09-09T01:55:08;2.78;;;1.25;;
2996;SDS011;1508;48.744;9.110;2022-09-09T02:01:26;2.17;;;1.10;;
2996;SDS011;1508;48.744;9.110;2022-09-09T02:10:21;5.40;;;1.27;;
2996;SDS011;1508;48.744;9.110;2022-09-09T02:13:16;4.95;;;1.30;;
2996;SDS011;1508;48.744;9.110;2022-09-09T02:16:16;4.22;;;1.20;;
2996;SDS011;1508;48.744;9.110;2022-09-09T02:19:21;2.70;;;1.10;;
2996;SDS011;1508;48.744;9.110;2022-09-09T02:22:11;3.55;;;1.20;;
2996;SDS011;1508;48.744;9.110;2022-09-09T02:24:57;2.60;;;1.05;;
2996;SDS011;1508;48.744;9.110;2022-09-09T02:27:45;3.85;;;1.02;;
2996;SDS011;1508;48.744;9.110;2022-09-09T02:30:32;2.97;;;1.20;;
2996;SDS011;1508;48.744;9.110;2022-09-09T02:33:22;4.47;;;1.27;;
2996;SDS011;1508;48.744;9.110;2022-09-09T02:36:12;3.80;;;1.10;;
2996;SDS011;1508;48.744;9.110;2022-09-09T02:39:00;2.30;;;1.00;;
2996;SDS011;1508;48.744;9.110;2022-09-09T02:41:48;2.67;;;1.20;;
2996;SDS011;1508;48.744;9.110;2022-09-09T02:44:34;2.50;;;1.17;;
2996;SDS011;1508;48.744;9.110;2022-09-09T02:50:24;2.65;;;1.15;;
2996;SDS011;1508;48.744;9.110;2022-09-09T02:53:18;3.13;;;1.60;;
2996;SDS011;1508;48.744;9.110;2022-09-09T02:56:09;4.80;;;1.10;;
2996;SDS011;1508;48.744;9.110;2022-09-09T02:59:04;5.45;;;1.20;;
2996;SDS011;1508;48.744;9.110;2022-09-09T03:01:50;2.50;;;0.90;;
2996;SDS011;1508;48.744;9.110;2022-09-09T03:04:36;5.65;;;1.50;;
2996;SDS011;1508;48.744;9.110;2022-09-09T03:07:22;1.85;;;1.05;;
2996;SDS011;1508;48.744;9.110;2022-09-09T03:10:08;3.67;;;1.00;;
2996;SDS011;1508;48.744;9.110;2022-09-09T03:12:54;2.08;;;1.10;;
2996;SDS011;1508;48.744;9.110;2022-09-09T03:15:40;2.60;;;1.15;;
2996;SDS011;1508;48.744;9.110;2022-09-09T03:18:26;3.33;;;1.20;;
2996;SDS011;1508;48.744;9.110;2022-09-09T03:21:12;2.50;;;1.10;;
2996;SDS011;1508;48.744;9.110;2022-09-09T03:23:58;3.25;;;1.10;;
2996;SDS011;1508;48.744;9.110;2022-09-09T03:26:44;2.13;;;1.10;;
2996;SDS011;1508;48.744;9.110;2022-09-09T03:29:30;2.60;;;1.00;;
2996;SDS011;1508;48.744;9.110;2022-09-09T03:32:16;3.65;;;1.00;;
2996;SDS011;1508;48.744;9.110;2022-09-09T03:35:03;1.65;;;1.02;;
2996;SDS011;1508;48.744;9.110;2022-09-09T03:37:49;3.10;;;1.00;;
2996;SDS011;1508;48.744;9.110;2022-09-09T03:40:34;1.48;;;1.00;;
2996;SDS011;1508;48.744;9.110;2022-09-09T03:43:21;2.00;;;0.90;;
2996;SDS011;1508;48.744;9.110;2022-09-09T03:46:07;3.63;;;1.20;;
2996;SDS011;1508;48.744;9.110;2022-09-09T03:48:53;2.60;;;0.90;;
2996;SDS011;1508;48.744;9.110;2022-09-09T03:51:39;1.80;;;0.93;;
2996;SDS011;1508;48.744;9.110;2022-09-09T03:54:25;6.63;;;1.10;;
2996;SDS011;1508;48.744;9.110;2022-09-09T03:57:11;3.28;;;1.20;;
2996;SDS011;1508;48.744;9.110;2022-09-09T03:59:56;2.90;;;1.00;;
2996;SDS011;1508;48.744;9.110;2022-09-09T04:02:42;2.80;;;1.10;;
2996;SDS011;1508;48.744;9.110;2022-09-09T04:05:28;2.60;;;1.10;;
2996;SDS011;1508;48.744;9.110;2022-09-09T04:08:14;3.53;;;1.08;;
2996;SDS011;1508;48.744;9.110;2022-09-09T04:11:00;2.53;;;1.30;;
2996;SDS011;1508;48.744;9.110;2022-09-09T04:13:47;3.30;;;0.95;;
2996;SDS011;1508;48.744;9.110;2022-09-09T04:16:33;2.35;;;1.13;;
2996;SDS011;1508;48.744;9.110;2022-09-09T04:19:19;2.03;;;1.00;;
2996;SDS011;1508;48.744;9.110;2022-09-09T04:22:04;3.20;;;1.30;;
2996;SDS011;1508;48.744;9.110;2022-09-09T04:24:50;3.50;;;1.00;;
2996;SDS011;1508;48.744;9.110;2022-09-09T04:27:39;2.90;;;1.30;;
2996;SDS011;1508;48.744;9.110;2022-09-09T04:30:25;2.20;;;1.17;;
2996;SDS011;1508;48.744;9.110;2022-09-09T04:33:11;2.00;;;1.00;;
2996;SDS011;1508;48.744;9.110;2022-09-09T04:35:57;4.82;;;1.58;;
2996;SDS011;1508;48.744;9.110;2022-09-09T04:38:43;3.00;;;1.40;;
2996;SDS011;1508;48.744;9.110;2022-09-09T04:41:29;2.93;;;1.30;;
2996;SDS011;1508;48.744;9.110;2022-09-09T04:44:15;3.30;;;1.20;;
2996;SDS011;1508;48.744;9.110;2022-09-09T04:47:01;4.40;;;1.30;;
2996;SDS011;1508;48.744;9.110;2022-09-09T04:49:47;3.97;;;1.40;;
2996;SDS011;1508;48.744;9.110;2022-09-09T04:52:35;3.22;;;1.30;;
2996;SDS011;1508;48.744;9.110;2022-09-09T04:55:21;3.78;;;1.10;;
2996;SDS011;1508;48.744;9.110;2022-09-09T04:58:07;5.40;;;1.58;;
2996;SDS011;1508;48.744;9.110;2022-09-09T05:00:53;4.45;;;1.30;;
2996;SDS011;1508;48.744;9.110;2022-09-09T05:03:39;3.33;;;1.40;;
2996;SDS011;1508;48.744;9.110;2022-09-09T05:06:25;5.30;;;1.23;;
2996;SDS011;1508;48.744;9.110;2022-09-09T05:09:11;3.38;;;1.20;;
2996;SDS011;1508;48.744;9.110;2022-09-09T05:11:57;3.25;;;1.40;;
2996;SDS011;1508;48.744;9.110;2022-09-09T05:14:43;5.30;;;1.20;;
2996;SDS011;1508;48.744;9.110;2022-09-09T05:17:29;4.00;;;1.30;;
2996;SDS011;1508;48.744;9.110;2022-09-09T05:20:15;2.90;;;1.20;;
2996;SDS011;1508;48.744;9.110;2022-09-09T05:23:01;2.43;;;1.50;;
2996;SDS011;1508;48.744;9.110;2022-09-09T05:25:54;5.10;;;1.40;;
2996;SDS011;1508;48.744;9.110;2022-09-09T05:28:43;3.60;;;1.60;;
2996;SDS011;1508;48.744;9.110;2022-09-09T05:31:30;3.10;;;1.25;;
2996;SDS011;1508;48.744;9.110;2022-09-09T05:34:16;2.65;;;1.20;;
2996;SDS011;1508;48.744;9.110;2022-09-09T05:37:02;7.03;;;1.58;;
2996;SDS011;1508;48.744;9.110;2022-09-09T05:39:48;2.20;;;1.30;;
2996;SDS011;1508;48.744;9.110;2022-09-09T05:42:34;2.40;;;1.30;;
2996;SDS011;1508;48.744;9.110;2022-09-09T05:45:19;2.97;;;1.20;;
2996;SDS011;1508;48.744;9.110;2022-09-09T05:48:05;3.28;;;1.50;;
2996;SDS011;1508;48.744;9.110;2022-09-09T05:50:54;4.38;;;1.42;;
2996;SDS011;1508;48.744;9.110;2022-09-09T05:53:40;2.80;;;1.20;;
2996;SDS011;1508;48.744;9.110;2022-09-09T05:56:27;3.60;;;1.30;;
2996;SDS011;1508;48.744;9.110;2022-09-09T05:59:14;2.70;;;1.40;;
2996;SDS011;1508;48.744;9.110;2022-09-09T06:02:00;5.20;;;1.50;;
2996;SDS011;1508;48.744;9.110;2022-09-09T06:04:46;4.30;;;1.55;;
2996;SDS011;1508;48.744;9.110;2022-09-09T06:07:31;3.28;;;1.45;;
2996;SDS011;1508;48.744;9.110;2022-09-09T06:10:17;4.30;;;1.40;;
2996;SDS011;1508;48.744;9.110;2022-09-09T06:13:03;2.17;;;1.55;;
2996;SDS011;1508;48.744;9.110;2022-09-09T06:15:50;6.00;;;1.60;;
2996;SDS011;1508;48.744;9.110;2022-09-09T06:18:36;5.00;;;1.50;;
2996;SDS011;1508;48.744;9.110;2022-09-09T06:21:27;5.07;;;1.60;;
2996;SDS011;1508;48.744;9.110;2022-09-09T06:24:14;2.50;;;1.40;;
2996;SDS011;1508;48.744;9.110;2022-09-09T06:27:00;3.85;;;1.60;;
2996;SDS011;1508;48.744;9.110;2022-09-09T06:29:46;2.60;;;1.30;;
2996;SDS011;1508;48.744;9.110;2022-09-09T06:32:32;3.92;;;1.40;;
2996;SDS011;1508;48.744;9.110;2022-09-09T06:35:17;4.00;;;1.50;;
2996;SDS011;1508;48.744;9.110;2022-09-09T06:38:03;2.40;;;1.30;;
2996;SDS011;1508;48.744;9.110;2022-09-09T06:40:52;4.00;;;1.70;;
2996;SDS011;1508;48.744;9.110;2022-09-09T06:43:39;5.95;;;1.80;;
2996;SDS011;1508;48.744;9.110;2022-09-09T06:46:29;3.20;;;1.55;;
2996;SDS011;1508;48.744;9.110;2022-09-09T06:49:16;4.13;;;1.53;;
2996;SDS011;1508;48.744;9.110;2022-09-09T06:52:01;2.83;;;1.30;;
2996;SDS011;1508;48.744;9.110;2022-09-09T06:54:47;2.63;;;1.30;;
2996;SDS011;1508;48.744;9.110;2022-09-09T06:57:33;3.58;;;1.30;;
2996;SDS011;1508;48.744;9.110;2022-09-09T07:00:19;5.00;;;1.60;;
2996;SDS011;1508;48.744;9.110;2022-09-09T07:03:05;5.15;;;1.50;;
2996;SDS011;1508;48.744;9.110;2022-09-09T07:05:54;2.90;;;1.30;;
2996;SDS011;1508;48.744;9.110;2022-09-09T07:08:40;5.03;;;1.63;;
2996;SDS011;1508;48.744;9.110;2022-09-09T07:11:27;3.97;;;1.50;;
2996;SDS011;1508;48.744;9.110;2022-09-09T07:14:14;4.70;;;1.63;;
2996;SDS011;1508;48.744;9.110;2022-09-09T07:17:00;3.50;;;1.50;;
2996;SDS011;1508;48.744;9.110;2022-09-09T07:19:46;2.60;;;1.52;;
2996;SDS011;1508;48.744;9.110;2022-09-09T07:22:32;4.60;;;1.48;;
2996;SDS011;1508;48.744;9.110;2022-09-09T07:25:18;3.03;;;1.20;;
2996;SDS011;1508;48.744;9.110;2022-09-09T07:28:04;4.00;;;1.30;;
2996;SDS011;1508;48.744;9.110;2022-09-09T07:30:56;5.05;;;1.45;;
2996;SDS011;1508;48.744;9.110;2022-09-09T07:33:46;4.88;;;1.40;;
2996;SDS011;1508;48.744;9.110;2022-09-09T07:36:33;6.88;;;1.35;;
2996;SDS011;1508;48.744;9.110;2022-09-09T07:39:21;3.47;;;1.53;;
2996;SDS011;1508;48.744;9.110;2022-09-09T07:42:07;3.57;;;1.10;;
2996;SDS011;1508;48.744;9.110;2022-09-09T07:44:53;3.00;;;1.20;;
2996;SDS011;1508;48.744;9.110;2022-09-09T07:47:39;2.58;;;1.27;;
2996;SDS011;1508;48.744;9.110;2022-09-09T07:50:25;2.70;;;1.40;;
2996;SDS011;1508;48.744;9.110;2022-09-09T07:53:11;3.28;;;1.30;;
2996;SDS011;1508;48.744;9.110;2022-09-09T07:56:07;4.20;;;1.30;;
2996;SDS011;1508;48.744;9.110;2022-09-09T07:58:55;2.50;;;1.30;;
2996;SDS011;1508;48.744;9.110;2022-09-09T08:01:43;3.20;;;1.10;;
2996;SDS011;1508;48.744;9.110;2022-09-09T08:04:33;3.40;;;1.30;;
2996;SDS011;1508;48.744;9.110;2022-09-09T08:07:19;2.60;;;1.00;;
2996;SDS011;1508;48.744;9.110;2022-09-09T08:10:05;2.70;;;1.40;;
2996;SDS011;1508;48.744;9.110;2022-09-09T08:12:51;4.25;;;1.33;;
2996;SDS011;1508;48.744;9.110;2022-09-09T08:15:37;5.50;;;1.40;;
2996;SDS011;1508;48.744;9.110;2022-09-09T08:18:23;4.20;;;1.50;;
2996;SDS011;1508;48.744;9.110;2022-09-09T08:21:10;6.05;;;1.42;;
2996;SDS011;1508;48.744;9.110;2022-09-09T08:23:58;2.40;;;1.10;;
2996;SDS011;1508;48.744;9.110;2022-09-09T08:26:45;3.70;;;1.60;;
2996;SDS011;1508;48.744;9.110;2022-09-09T08:29:32;3.75;;;1.20;;
2996;SDS011;1508;48.744;9.110;2022-09-09T08:32:18;5.17;;;1.57;;
2996;SDS011;1508;48.744;9.110;2022-09-09T08:35:04;3.60;;;1.20;;
2996;SDS011;1508;48.744;9.110;2022-09-09T08:37:53;3.20;;;1.30;;
2996;SDS011;1508;48.744;9.110;2022-09-09T08:40:40;2.70;;;1.40;;
2996;SDS011;1508;48.744;9.110;2022-09-09T08:43:31;6.88;;;1.50;;
2996;SDS011;1508;48.744;9.110;2022-09-09T08:46:21;2.40;;;1.10;;
2996;SDS011;1508;48.744;9.110;2022-09-09T08:55:54;3.67;;;1.17;;
2996;SDS011;1508;48.744;9.110;2022-09-09T08:58:48;5.88;;;1.50;;
2996;SDS011;1508;48.744;9.110;2022-09-09T09:01:41;3.53;;;1.03;;
2996;SDS011;1508;48.744;9.110;2022-09-09T09:10:45;3.97;;;1.10;;
2996;SDS011;1508;48.744;9.110;2022-09-09T09:13:54;4.13;;;1.23;;
2996;SDS011;1508;48.744;9.110;2022-09-09T09:19:50;2.67;;;1.10;;
2996;SDS011;1508;48.744;9.110;2022-09-09T09:22:39;2.92;;;1.20;;
2996;SDS011;1508;48.744;9.110;2022-09-09T09:25:39;4.85;;;1.27;;
2996;SDS011;1508;48.744;9.110;2022-09-09T09:28:29;2.22;;;1.10;;
2996;SDS011;1508;48.744;9.110;2022-09-09T09:31:16;4.43;;;1.20;;
2996;SDS011;1508;48.744;9.110;2022-09-09T09:34:05;3.92;;;1.00;;
2996;SDS011;1508;48.744;9.110;2022-09-09T09:36:54;4.68;;;1.00;;
2996;SDS011;1508;48.744;9.110;2022-09-09T09:39:45;2.00;;;1.00;;
2996;SDS011;1508;48.744;9.110;2022-09-09T09:42:31;3.43;;;1.10;;
2996;SDS011;1508;48.744;9.110;2022-09-09T09:45:20;1.80;;;0.90;;
2996;SDS011;1508;48.744;9.110;2022-09-09T09:48:13;5.05;;;1.92;;
2996;SDS011;1508;48.744;9.110;2022-09-09T09:51:00;6.68;;;1.90;;
2996;SDS011;1508;48.744;9.110;2022-09-09T09:53:53;3.35;;;1.40;;
2996;SDS011;1508;48.744;9.110;2022-09-09T09:56:39;2.17;;;1.17;;
2996;SDS011;1508;48.744;9.110;2022-09-09T10:02:21;4.78;;;2.13;;
2996;SDS011;1508;48.744;9.110;2022-09-09T10:08:04;5.65;;;2.70;;
2996;SDS011;1508;48.744;9.110;2022-09-09T10:14:00;3.97;;;1.98;;
2996;SDS011;1508;48.744;9.110;2022-09-09T10:22:52;3.20;;;1.00;;
2996;SDS011;1508;48.744;9.110;2022-09-09T10:32:09;5.07;;;1.70;;
2996;SDS011;1508;48.744;9.110;2022-09-09T10:35:31;4.57;;;1.48;;
2996;SDS011;1508;48.744;9.110;2022-09-09T10:44:28;5.60;;;1.60;;
2996;SDS011;1508;48.744;9.110;2022-09-09T10:47:43;4.78;;;1.35;;
2996;SDS011;1508;48.744;9.110;2022-09-09T10:53:44;4.18;;;1.25;;
2996;SDS011;1508;48.744;9.110;2022-09-09T10:56:41;3.90;;;1.40;;
2996;SDS011;1508;48.744;9.110;2022-09-09T10:59:30;5.00;;;1.30;;
2996;SDS011;1508;48.744;9.110;2022-09-09T11:02:26;2.95;;;1.20;;
2996;SDS011;1508;48.744;9.110;2022-09-09T11:05:20;4.10;;;1.30;;
2996;SDS011;1508;48.744;9.110;2022-09-09T11:08:17;1.90;;;1.05;;
2996;SDS011;1508;48.744;9.110;2022-09-09T11:14:26;5.70;;;1.20;;
2996;SDS011;1508;48.744;9.110;2022-09-09T11:17:31;3.83;;;1.10;;
2996;SDS011;1508;48.744;9.110;2022-09-09T11:20:24;2.50;;;1.17;;
2996;SDS011;1508;48.744;9.110;2022-09-09T11:23:19;4.30;;;0.93;;
2996;SDS011;1508;48.744;9.110;2022-09-09T11:26:11;5.90;;;1.30;;
2996;SDS011;1508;48.744;9.110;2022-09-09T11:29:13;3.90;;;0.90;;
2996;SDS011;1508;48.744;9.110;2022-09-09T11:35:42;4.22;;;1.10;;
2996;SDS011;1508;48.744;9.110;2022-09-09T11:38:50;3.90;;;1.10;;
2996;SDS011;1508;48.744;9.110;2022-09-09T11:41:37;2.10;;;0.80;;
2996;SDS011;1508;48.744;9.110;2022-09-09T11:44:26;1.30;;;0.80;;
2996;SDS011;1508;48.744;9.110;2022-09-09T11:47:36;3.70;;;1.00;;
2996;SDS011;1508;48.744;9.110;2022-09-09T11:56:11;2.20;;;0.70;;
2996;SDS011;1508;48.744;9.110;2022-09-09T11:59:05;1.23;;;0.67;;
2996;SDS011;1508;48.744;9.110;2022-09-09T12:02:22;1.30;;;0.70;;
2996;SDS011;1508;48.744;9.110;2022-09-09T12:05:13;1.30;;;0.75;;
2996;SDS011;1508;48.744;9.110;2022-09-09T12:07:59;3.30;;;0.80;;
2996;SDS011;1508;48.744;9.110;2022-09-09T12:10:57;1.20;;;0.60;;
2996;SDS011;1508;48.744;9.110;2022-09-09T12:13:51;2.67;;;0.90;;
2996;SDS011;1508;48.744;9.110;2022-09-09T12:16:39;1.70;;;0.80;;
2996;SDS011;1508;48.744;9.110;2022-09-09T12:19:24;2.90;;;0.88;;
2996;SDS011;1508;48.744;9.110;2022-09-09T12:25:26;2.65;;;0.90;;
2996;SDS011;1508;48.744;9.110;2022-09-09T12:28:21;2.17;;;0.80;;
2996;SDS011;1508;48.744;9.110;2022-09-09T12:31:18;1.80;;;0.80;;
2996;SDS011;1508;48.744;9.110;2022-09-09T12:34:21;1.70;;;0.80;;
2996;SDS011;1508;48.744;9.110;2022-09-09T12:37:14;2.63;;;0.85;;
2996;SDS011;1508;48.744;9.110;2022-09-09T12:40:21;3.42;;;0.90;;
2996;SDS011;1508;48.744;9.110;2022-09-09T12:43:18;2.47;;;0.93;;
2996;SDS011;1508;48.744;9.110;2022-09-09T12:46:09;3.20;;;1.00;;
2996;SDS011;1508;48.744;9.110;2022-09-09T12:49:03;4.13;;;0.98;;
2996;SDS011;1508;48.744;9.110;2022-09-09T12:51:49;2.43;;;1.00;;
2996;SDS011;1508;48.744;9.110;2022-09-09T12:54:35;2.50;;;1.10;;
2996;SDS011;1508;48.744;9.110;2022-09-09T12:57:23;3.92;;;0.85;;
2996;SDS011;1508;48.744;9.110;2022-09-09T13:03:02;2.30;;;0.80;;
2996;SDS011;1508;48.744;9.110;2022-09-09T13:06:12;2.92;;;0.90;;
2996;SDS011;1508;48.744;9.110;2022-09-09T13:09:03;2.10;;;0.80;;
2996;SDS011;1508;48.744;9.110;2022-09-09T13:11:50;2.80;;;0.90;;
2996;SDS011;1508;48.744;9.110;2022-09-09T13:14:42;2.40;;;0.97;;
2996;SDS011;1508;48.744;9.110;2022-09-09T13:17:30;2.95;;;0.82;;
2996;SDS011;1508;48.744;9.110;2022-09-09T13:20:17;3.42;;;0.90;;
2996;SDS011;1508;48.744;9.110;2022-09-09T13:23:03;2.20;;;0.82;;
2996;SDS011;1508;48.744;9.110;2022-09-09T13:25:53;4.88;;;0.93;;
2996;SDS011;1508;48.744;9.110;2022-09-09T13:28:40;2.95;;;0.80;;
2996;SDS011;1508;48.744;9.110;2022-09-09T13:31:29;2.33;;;1.00;;
2996;SDS011;1508;48.744;9.110;2022-09-09T13:34:28;2.47;;;1.10;;
2996;SDS011;1508;48.744;9.110;2022-09-09T13:40:22;2.45;;;0.80;;
2996;SDS011;1508;48.744;9.110;2022-09-09T13:43:17;6.50;;;1.00;;
2996;SDS011;1508;48.744;9.110;2022-09-09T13:49:21;2.28;;;0.70;;
2996;SDS011;1508;48.744;9.110;2022-09-09T13:52:17;1.65;;;0.73;;
2996;SDS011;1508;48.744;9.110;2022-09-09T13:55:04;3.83;;;0.90;;
2996;SDS011;1508;48.744;9.110;2022-09-09T13:57:51;2.30;;;0.80;;
2996;SDS011;1508;48.744;9.110;2022-09-09T14:00:41;4.20;;;0.90;;
2996;SDS011;1508;48.744;9.110;2022-09-09T14:03:27;2.50;;;0.90;;
2996;SDS011;1508;48.744;9.110;2022-09-09T14:06:13;2.83;;;0.80;;
2996;SDS011;1508;48.744;9.110;2022-09-09T14:08:59;2.05;;;0.75;;
2996;SDS011;1508;48.744;9.110;2022-09-09T14:11:44;2.80;;;0.80;;
2996;SDS011;1508;48.744;9.110;2022-09-09T14:14:30;2.60;;;0.80;;
2996;SDS011;1508;48.744;9.110;2022-09-09T14:17:16;3.20;;;0.90;;
2996;SDS011;1508;48.744;9.110;2022-09-09T14:20:05;3.50;;;0.90;;
2996;SDS011;1508;48.744;9.110;2022-09-09T14:22:52;2.70;;;1.00;;
2996;SDS011;1508;48.744;9.110;2022-09-09T14:25:41;2.93;;;0.90;;
2996;SDS011;1508;48.744;9.110;2022-09-09T14:28:28;3.10;;;0.80;;
2996;SDS011;1508;48.744;9.110;2022-09-09T14:31:14;3.50;;;0.90;;
2996;SDS011;1508;48.744;9.110;2022-09-09T14:34:00;1.70;;;0.80;;
2996;SDS011;1508;48.744;9.110;2022-09-09T14:36:46;2.92;;;0.80;;
2996;SDS011;1508;48.744;9.110;2022-09-09T14:39:31;1.97;;;0.80;;
2996;SDS011;1508;48.744;9.110;2022-09-09T14:42:17;2.50;;;0.90;;
2996;SDS011;1508;48.744;9.110;2022-09-09T14:45:03;2.23;;;0.90;;
2996;SDS011;1508;48.744;9.110;2022-09-09T14:47:50;2.17;;;0.90;;
2996;SDS011;1508;48.744;9.110;2022-09-09T14:50:36;2.67;;;0.80;;
2996;SDS011;1508;48.744;9.110;2022-09-09T14:53:22;2.67;;;0.80;;
2996;SDS011;1508;48.744;9.110;2022-09-09T14:56:12;4.45;;;1.00;;
2996;SDS011;1508;48.744;9.110;2022-09-09T14:59:00;2.53;;;1.10;;
2996;SDS011;1508;48.744;9.110;2022-09-09T15:01:46;2.22;;;0.80;;
2996;SDS011;1508;48.744;9.110;2022-09-09T15:04:32;3.90;;;0.90;;
2996;SDS011;1508;48.744;9.110;2022-09-09T15:07:18;1.77;;;0.75;;
2996;SDS011;1508;48.744;9.110;2022-09-09T15:10:04;3.65;;;0.80;;
2996;SDS011;1508;48.744;9.110;2022-09-09T15:12:50;2.50;;;0.90;;
2996;SDS011;1508;48.744;9.110;2022-09-09T15:15:36;2.60;;;0.80;;
2996;SDS011;1508;48.744;9.110;2022-09-09T15:18:22;2.03;;;0.80;;
2996;SDS011;1508;48.744;9.110;2022-09-09T15:21:10;2.85;;;0.90;;
2996;SDS011;1508;48.744;9.110;2022-09-09T15:23:57;2.40;;;0.80;;
2996;SDS011;1508;48.744;9.110;2022-09-09T15:26:43;3.05;;;0.90;;
2996;SDS011;1508;48.744;9.110;2022-09-09T15:29:29;4.63;;;0.90;;
2996;SDS011;1508;48.744;9.110;2022-09-09T15:32:15;2.92;;;0.80;;
2996;SDS011;1508;48.744;9.110;2022-09-09T15:35:00;3.28;;;1.10;;
2996;SDS011;1508;48.744;9.110;2022-09-09T15:37:46;2.33;;;0.88;;
2996;SDS011;1508;48.744;9.110;2022-09-09T15:40:32;2.95;;;0.90;;
2996;SDS011;1508;48.744;9.110;2022-09-09T15:43:18;3.87;;;1.07;;
2996;SDS011;1508;48.744;9.110;2022-09-09T15:49:12;2.00;;;0.80;;
2996;SDS011;1508;48.744;9.110;2022-09-09T15:51:58;1.90;;;0.80;;
2996;SDS011;1508;48.744;9.110;2022-09-09T15:54:45;3.63;;;1.00;;
2996;SDS011;1508;48.744;9.110;2022-09-09T15:57:31;2.00;;;0.70;;
2996;SDS011;1508;48.744;9.110;2022-09-09T16:00:17;4.05;;;1.10;;
2996;SDS011;1508;48.744;9.110;2022-09-09T16:03:02;1.20;;;0.70;;
2996;SDS011;1508;48.744;9.110;2022-09-09T16:05:50;2.83;;;1.00;;
2996;SDS011;1508;48.744;9.110;2022-09-09T16:08:40;2.97;;;1.00;;
2996;SDS011;1508;48.744;9.110;2022-09-09T16:11:29;2.42;;;0.88;;
2996;SDS011;1508;48.744;9.110;2022-09-09T16:14:16;3.20;;;0.90;;
2996;SDS011;1508;48.744;9.110;2022-09-09T16:17:03;2.30;;;0.90;;
2996;SDS011;1508;48.744;9.110;2022-09-09T16:19:49;1.90;;;0.90;;
2996;SDS011;1508;48.744;9.110;2022-09-09T16:22:35;2.92;;;0.80;;
2996;SDS011;1508;48.744;9.110;2022-09-09T16:25:21;4.20;;;0.90;;
2996;SDS011;1508;48.744;9.110;2022-09-09T16:28:06;2.50;;;1.00;;
2996;SDS011;1508;48.744;9.110;2022-09-09T16:30:52;2.90;;;0.90;;
2996;SDS011;1508;48.744;9.110;2022-09-09T16:33:39;2.33;;;0.90;;
2996;SDS011;1508;48.744;9.110;2022-09-09T16:36:26;5.60;;;1.20;;
2996;SDS011;1508;48.744;9.110;2022-09-09T16:39:14;3.20;;;1.00;;
2996;SDS011;1508;48.744;9.110;2022-09-09T16:42:01;1.77;;;0.88;;
2996;SDS011;1508;48.744;9.110;2022-09-09T16:44:47;2.40;;;0.80;;
2996;SDS011;1508;48.744;9.110;2022-09-09T16:47:33;2.80;;;1.02;;
2996;SDS011;1508;48.744;9.110;2022-09-09T16:50:19;1.65;;;0.60;;
2996;SDS011;1508;48.744;9.110;2022-09-09T16:53:05;2.90;;;0.63;;
2996;SDS011;1508;48.744;9.110;2022-09-09T16:55:51;1.90;;;0.70;;
2996;SDS011;1508;48.744;9.110;2022-09-09T16:58:37;2.20;;;0.70;;
2996;SDS011;1508;48.744;9.110;2022-09-09T17:01:23;1.80;;;0.63;;
2996;SDS011;1508;48.744;9.110;2022-09-09T17:04:14;1.88;;;0.80;;
2996;SDS011;1508;48.744;9.110;2022-09-09T17:07:02;1.90;;;0.70;;
2996;SDS011;1508;48.744;9.110;2022-09-09T17:09:48;2.00;;;0.90;;
2996;SDS011;1508;48.744;9.110;2022-09-09T17:12:34;2.28;;;0.80;;
2996;SDS011;1508;48.744;9.110;2022-09-09T17:15:19;1.77;;;0.70;;
2996;SDS011;1508;48.744;9.110;2022-09-09T17:18:05;1.33;;;0.70;;
2996;SDS011;1508;48.744;9.110;2022-09-09T17:20:51;2.13;;;0.70;;
2996;SDS011;1508;48.744;9.110;2022-09-09T17:23:37;2.13;;;0.70;;
2996;SDS011;1508;48.744;9.110;2022-09-09T17:26:25;2.38;;;0.70;;
2996;SDS011;1508;48.744;9.110;2022-09-09T17:29:12;3.90;;;0.90;;
2996;SDS011;1508;48.744;9.110;2022-09-09T17:31:58;1.73;;;0.70;;
2996;SDS011;1508;48.744;9.110;2022-09-09T17:34:44;1.80;;;0.90;;
2996;SDS011;1508;48.744;9.110;2022-09-09T17:37:29;2.30;;;0.80;;
2996;SDS011;1508;48.744;9.110;2022-09-09T17:40:15;2.25;;;0.90;;
2996;SDS011;1508;48.744;9.110;2022-09-09T17:43:01;2.67;;;0.90;;
2996;SDS011;1508;48.744;9.110;2022-09-09T17:45:47;1.73;;;0.73;;
2996;SDS011;1508;48.744;9.110;2022-09-09T17:48:33;2.10;;;0.80;;
2996;SDS011;1508;48.744;9.110;2022-09-09T17:51:20;3.55;;;0.90;;
2996;SDS011;1508;48.744;9.110;2022-09-09T17:54:09;1.92;;;0.82;;
2996;SDS011;1508;48.744;9.110;2022-09-09T17:56:56;3.22;;;0.80;;
2996;SDS011;1508;48.744;9.110;2022-09-09T17:59:42;1.60;;;0.80;;
2996;SDS011;1508;48.744;9.110;2022-09-09T18:02:28;1.70;;;0.80;;
2996;SDS011;1508;48.744;9.110;2022-09-09T18:05:14;1.90;;;0.88;;
2996;SDS011;1508;48.744;9.110;2022-09-09T18:08:00;2.90;;;0.80;;
2996;SDS011;1508;48.744;9.110;2022-09-09T18:10:51;1.73;;;1.10;;
2996;SDS011;1508;48.744;9.110;2022-09-09T18:13:37;3.60;;;1.02;;
2996;SDS011;1508;48.744;9.110;2022-09-09T18:16:23;2.90;;;0.93;;
2996;SDS011;1508;48.744;9.110;2022-09-09T18:19:11;1.27;;;0.70;;
2996;SDS011;1508;48.744;9.110;2022-09-09T18:21:58;2.20;;;0.90;;
2996;SDS011;1508;48.744;9.110;2022-09-09T18:24:44;2.30;;;1.00;;
2996;SDS011;1508;48.744;9.110;2022-09-09T18:27:30;2.90;;;1.00;;
2996;SDS011;1508;48.744;9.110;2022-09-09T18:30:16;1.83;;;0.80;;
2996;SDS011;1508;48.744;9.110;2022-09-09T18:33:01;2.80;;;1.00;;
2996;SDS011;1508;48.744;9.110;2022-09-09T18:35:47;3.53;;;1.00;;
2996;SDS011;1508;48.744;9.110;2022-09-09T18:38:33;2.50;;;1.00;;
2996;SDS011;1508;48.744;9.110;2022-09-09T18:41:24;4.03;;;1.10;;
2996;SDS011;1508;48.744;9.110;2022-09-09T18:44:12;2.97;;;1.17;;
2996;SDS011;1508;48.744;9.110;2022-09-09T18:47:00;4.72;;;1.10;;
2996;SDS011;1508;48.744;9.110;2022-09-09T18:49:46;3.85;;;1.48;;
2996;SDS011;1508;48.744;9.110;2022-09-09T18:52:32;3.53;;;1.33;;
2996;SDS011;1508;48.744;9.110;2022-09-09T18:55:18;3.33;;;1.40;;
2996;SDS011;1508;48.744;9.110;2022-09-09T18:58:04;1.83;;;1.08;;
2996;SDS011;1508;48.744;9.110;2022-09-09T19:00:50;5.32;;;1.10;;
2996;SDS011;1508;48.744;9.110;2022-09-09T19:03:35;2.22;;;1.30;;
2996;SDS011;1508;48.744;9.110;2022-09-09T19:06:27;2.95;;;1.10;;
2996;SDS011;1508;48.744;9.110;2022-09-09T19:09:15;2.00;;;1.20;;
2996;SDS011;1508;48.744;9.110;2022-09-09T19:12:02;3.10;;;1.10;;
2996;SDS011;1508;48.744;9.110;2022-09-09T19:14:48;3.33;;;1.27;;
2996;SDS011;1508;48.744;9.110;2022-09-09T19:17:34;3.90;;;1.20;;
2996;SDS011;1508;48.744;9.110;2022-09-09T19:20:20;3.30;;;1.20;;
2996;SDS011;1508;48.744;9.110;2022-09-09T19:23:06;1.80;;;1.00;;
2996;SDS011;1508;48.744;9.110;2022-09-09T19:25:52;3.30;;;1.13;;
2996;SDS011;1508;48.744;9.110;2022-09-09T19:28:37;3.78;;;1.20;;
2996;SDS011;1508;48.744;9.110;2022-09-09T19:31:24;3.75;;;1.20;;
2996;SDS011;1508;48.744;9.110;2022-09-09T19:34:09;2.60;;;1.20;;
2996;SDS011;1508;48.744;9.110;2022-09-09T19:36:55;3.90;;;1.30;;
2996;SDS011;1508;48.744;9.110;2022-09-09T19:39:41;4.43;;;1.27;;
2996;SDS011;1508;48.744;9.110;2022-09-09T19:42:27;3.30;;;1.10;;